Time;durP1;ratioP1;P1;durP2;ratioP2;P2;SDS_P1;SDS_P2;PMS_P1;PMS_P2;Temp;Humidity;BMP_temperature;BMP_pressure;BME280_temperature;BME280_humidity;BME280_pressure;Samples;Min_cycle;Max_cycle;Signal;HPM_P1;HPM_P2
2022/10/10 00:01:31;;;;;;;4.27;3.00;;;10.80;99.90;;;;;;5066410;23;20214;-69
2022/10/10 00:03:31;;;;;;;3.90;2.67;;;10.80;99.90;;;;;;5067192;23;20245;-69
2022/10/10 00:05:32;;;;;;;6.37;2.70;;;10.90;99.90;;;;;;5067883;23;20193;-69
2022/10/10 00:07:32;;;;;;;4.17;2.70;;;10.90;99.90;;;;;;5067576;23;20189;-69
2022/10/10 00:09:33;;;;;;;4.70;3.17;;;11.00;99.90;;;;;;5066942;23;20551;-69
2022/10/10 00:11:34;;;;;;;5.30;3.40;;;10.90;99.90;;;;;;5066363;23;20213;-68
2022/10/10 00:13:35;;;;;;;5.80;3.13;;;11.00;99.90;;;;;;5067304;23;20162;-69
2022/10/10 00:15:36;;;;;;;4.67;3.47;;;10.90;99.90;;;;;;5067483;23;20179;-68
2022/10/10 00:17:36;;;;;;;4.37;2.90;;;10.80;99.90;;;;;;5067502;23;20163;-69
2022/10/10 00:19:37;;;;;;;4.63;2.87;;;10.90;99.90;;;;;;5066901;23;20166;-69
2022/10/10 00:21:37;;;;;;;5.47;2.80;;;10.90;99.90;;;;;;5066186;23;20182;-69
2022/10/10 00:23:38;;;;;;;3.43;3.13;;;10.90;99.90;;;;;;5067135;23;20194;-69
2022/10/10 00:25:39;;;;;;;4.90;3.43;;;10.90;99.90;;;;;;5067038;23;20189;-69
2022/10/10 00:27:39;;;;;;;4.97;3.13;;;10.80;99.90;;;;;;5066820;23;20166;-69
2022/10/10 00:29:40;;;;;;;3.40;2.90;;;10.80;99.90;;;;;;5066995;23;20201;-69
2022/10/10 00:31:41;;;;;;;3.67;3.07;;;10.80;99.90;;;;;;5065888;23;20840;-69
2022/10/10 00:33:41;;;;;;;4.03;2.73;;;10.70;99.90;;;;;;5066990;23;20554;-68
2022/10/10 00:35:42;;;;;;;4.63;2.80;;;10.90;99.90;;;;;;5067415;23;20197;-68
2022/10/10 00:37:42;;;;;;;5.43;3.03;;;10.90;99.90;;;;;;5066752;23;20162;-68
2022/10/10 00:39:43;;;;;;;4.60;3.07;;;10.80;99.90;;;;;;5066639;23;20233;-68
2022/10/10 00:41:44;;;;;;;4.37;2.93;;;10.70;99.90;;;;;;5040206;23;20171;-68
2022/10/10 00:44:05;;;;;;;5.40;3.00;;;10.80;99.90;;;;;;5066977;23;20173;-69
2022/10/10 00:46:05;;;;;;;4.90;3.20;;;10.70;99.90;;;;;;5067297;23;20226;-69
2022/10/10 00:48:10;;;;;;;3.47;2.63;;;10.80;99.90;;;;;;5041056;23;20178;-69
2022/10/10 00:50:11;;;;;;;7.57;3.10;;;10.80;99.90;;;;;;5066182;23;20686;-69
2022/10/10 00:52:12;;;;;;;6.37;2.77;;;10.90;99.90;;;;;;5066745;23;20237;-69
2022/10/10 00:54:15;;;;;;;5.03;3.13;;;10.90;99.90;;;;;;5067171;23;20189;-69
2022/10/10 00:56:19;;;;;;;6.27;3.43;;;10.90;99.90;;;;;;5066836;23;20165;-68
2022/10/10 00:58:20;;;;;;;4.20;3.30;;;10.80;99.90;;;;;;5066608;23;20162;-68
2022/10/10 01:00:21;;;;;;;5.43;3.13;;;10.80;99.90;;;;;;5066401;23;20477;-69
2022/10/10 01:02:21;;;;;;;3.20;2.77;;;10.80;99.90;;;;;;5066718;23;20161;-69
2022/10/10 01:04:37;;;;;;;6.60;4.03;;;10.80;99.90;;;;;;5066850;23;20644;-69
2022/10/10 01:06:38;;;;;;;8.10;3.30;;;10.80;99.90;;;;;;5066914;23;20162;-69
2022/10/10 01:08:39;;;;;;;4.77;3.23;;;10.80;99.90;;;;;;5066730;23;20158;-69
2022/10/10 01:10:55;;;;;;;5.33;3.07;;;10.70;99.90;;;;;;5066027;23;20197;-69
2022/10/10 01:13:27;;;;;;;5.37;3.10;;;10.80;99.90;;;;;;5066752;23;20158;-69
2022/10/10 01:15:49;;;;;;;8.20;2.83;;;10.90;99.90;;;;;;5067210;23;20215;-68
2022/10/10 01:18:14;;;;;;;4.80;2.97;;;10.80;99.90;;;;;;5066937;23;20209;-68
2022/10/10 01:20:52;;;;;;;7.33;3.07;;;10.90;99.90;;;;;;5065737;23;20235;-68
2022/10/10 01:23:20;;;;;;;6.03;2.97;;;10.90;99.90;;;;;;5066657;23;20154;-68
2022/10/10 01:25:30;;;;;;;3.23;2.70;;;10.80;99.90;;;;;;5066229;23;20178;-68
2022/10/10 01:27:41;;;;;;;4.17;2.63;;;10.80;99.90;;;;;;5066620;23;20157;-68
2022/10/10 01:29:51;;;;;;;3.10;2.80;;;10.80;99.90;;;;;;5066427;23;20170;-68
2022/10/10 01:31:55;;;;;;;4.60;2.70;;;10.90;99.90;;;;;;5065837;23;20200;-68
2022/10/10 01:34:07;;;;;;;5.87;2.90;;;10.90;99.90;;;;;;5040259;23;20617;-69
2022/10/10 01:36:25;;;;;;;6.10;2.60;;;10.90;99.90;;;;;;5042330;23;21189;-68
2022/10/10 01:38:31;;;;;;;4.03;2.50;;;10.90;99.90;;;;;;5042265;23;20259;-68
2022/10/10 01:40:37;;;;;;;4.20;2.57;;;10.80;99.90;;;;;;5041460;23;20166;-68
2022/10/10 01:42:49;;;;;;;4.30;3.07;;;10.80;99.90;;;;;;5042240;23;20159;-68
2022/10/10 01:44:52;;;;;;;5.27;3.67;;;10.80;99.90;;;;;;5042525;23;20238;-68
2022/10/10 01:46:53;;;;;;;5.37;3.13;;;10.70;99.90;;;;;;5042412;23;20170;-68
2022/10/10 01:48:56;;;;;;;5.17;3.00;;;10.70;99.90;;;;;;5042031;23;20825;-68
2022/10/10 01:51:39;;;;;;;5.63;3.33;;;10.70;99.90;;;;;;5039676;23;20198;-69
2022/10/10 01:54:01;;;;;;;4.80;3.20;;;10.80;99.90;;;;;;5042208;23;20194;-68
2022/10/10 01:56:12;;;;;;;4.77;3.27;;;10.80;99.90;;;;;;5042313;23;20183;-69
2022/10/10 01:58:25;;;;;;;4.87;3.20;;;10.70;99.90;;;;;;5042182;23;20233;-69
2022/10/10 02:00:25;;;;;;;5.40;3.40;;;10.70;99.90;;;;;;5041240;23;20799;-69
2022/10/10 02:02:38;;;;;;;7.00;3.30;;;10.70;99.90;;;;;;5041966;23;20166;-69
2022/10/10 02:05:22;;;;;;;5.23;3.17;;;10.80;99.90;;;;;;5042402;23;20185;-68
2022/10/10 02:07:41;;;;;;;6.67;3.07;;;10.90;99.90;;;;;;4968346;23;20526;-69
2022/10/10 02:09:43;;;;;;;5.20;3.10;;;10.90;99.90;;;;;;5023713;23;20606;-69
2022/10/10 02:11:45;;;;;;;4.47;3.20;;;10.80;99.90;;;;;;5041507;23;20199;-69
2022/10/10 02:14:01;;;;;;;5.27;3.00;;;10.90;99.90;;;;;;5042252;23;20156;-68
2022/10/10 02:16:07;;;;;;;4.90;3.30;;;10.90;99.90;;;;;;5042255;23;20159;-69
2022/10/10 02:18:10;;;;;;;3.63;2.80;;;10.80;99.90;;;;;;5042082;23;20214;-69
2022/10/10 02:20:15;;;;;;;5.03;3.00;;;10.90;99.90;;;;;;5041659;23;20277;-69
2022/10/10 02:22:16;;;;;;;9.23;3.50;;;10.90;99.90;;;;;;5042128;23;20187;-69
2022/10/10 02:24:21;;;;;;;7.07;3.47;;;10.70;99.90;;;;;;5041127;23;20259;-69
2022/10/10 02:26:24;;;;;;;6.27;3.30;;;10.70;99.90;;;;;;5040033;23;20651;-69
2022/10/10 02:28:39;;;;;;;3.90;3.10;;;10.70;99.90;;;;;;5041914;23;20163;-69
2022/10/10 02:30:44;;;;;;;4.67;3.57;;;10.90;99.90;;;;;;5041294;23;20656;-69
2022/10/10 02:32:50;;;;;;;6.37;3.37;;;10.80;99.90;;;;;;5048866;23;20202;-69
2022/10/10 02:34:54;;;;;;;4.17;3.13;;;10.80;99.90;;;;;;5065771;23;20182;-69
2022/10/10 02:37:02;;;;;;;4.63;3.30;;;10.80;99.90;;;;;;5066115;23;20158;-70
2022/10/10 02:39:05;;;;;;;3.30;2.83;;;10.80;99.90;;;;;;5066048;23;20213;-69
2022/10/10 02:41:08;;;;;;;4.90;2.70;;;10.90;99.90;;;;;;5065352;23;20219;-69
2022/10/10 02:43:10;;;;;;;4.40;3.67;;;10.80;99.90;;;;;;5066200;23;20221;-69
2022/10/10 02:45:11;;;;;;;6.70;2.90;;;10.80;99.90;;;;;;5065900;23;20186;-69
2022/10/10 02:47:12;;;;;;;5.13;2.77;;;10.80;99.90;;;;;;5066083;23;20165;-70
2022/10/10 02:49:12;;;;;;;4.10;2.93;;;10.80;99.90;;;;;;5040077;23;20202;-70
2022/10/10 02:51:15;;;;;;;4.70;2.93;;;10.80;99.90;;;;;;5064927;23;20194;-69
2022/10/10 02:53:16;;;;;;;4.77;3.13;;;10.80;99.90;;;;;;5065777;23;20166;-69
2022/10/10 02:55:17;;;;;;;3.53;2.80;;;10.70;99.90;;;;;;5065919;23;20213;-69
2022/10/10 02:57:17;;;;;;;3.40;2.90;;;10.70;99.90;;;;;;5066178;23;20545;-69
2022/10/10 02:59:18;;;;;;;4.03;3.00;;;10.70;99.90;;;;;;5066125;23;20165;-69
2022/10/10 03:01:19;;;;;;;4.43;2.77;;;10.80;99.90;;;;;;5065418;23;20197;-69
2022/10/10 03:03:19;;;;;;;4.33;3.90;;;10.90;99.90;;;;;;5065874;23;20269;-69
2022/10/10 03:05:20;;;;;;;4.10;2.77;;;10.80;99.90;;;;;;5066059;23;20194;-69
2022/10/10 03:07:20;;;;;;;3.90;2.90;;;10.80;99.90;;;;;;5066859;23;20189;-70
2022/10/10 03:09:21;;;;;;;5.90;3.40;;;10.70;99.90;;;;;;5066264;23;20816;-69
2022/10/10 03:11:21;;;;;;;3.67;3.00;;;10.70;99.90;;;;;;5066852;23;20571;-70
2022/10/10 03:13:22;;;;;;;6.37;3.40;;;10.70;99.90;;;;;;5070779;23;20261;-70
2022/10/10 03:15:23;;;;;;;3.83;2.80;;;10.90;99.90;;;;;;5070157;23;20174;-70
2022/10/10 03:17:23;;;;;;;5.80;3.03;;;10.80;99.90;;;;;;5067609;23;20159;-70
2022/10/10 03:19:25;;;;;;;5.30;3.17;;;11.00;99.90;;;;;;5067783;23;20190;-70
2022/10/10 03:21:25;;;;;;;6.57;3.70;;;11.10;99.90;;;;;;5067273;23;20170;-70
2022/10/10 03:23:26;;;;;;;4.57;3.00;;;11.00;99.90;;;;;;5068007;23;20675;-70
2022/10/10 03:25:26;;;;;;;4.47;3.20;;;10.90;99.90;;;;;;5067748;23;20201;-70
2022/10/10 03:27:27;;;;;;;6.77;3.83;;;10.90;99.90;;;;;;5067541;23;20170;-70
2022/10/10 03:29:27;;;;;;;4.50;3.40;;;10.80;99.90;;;;;;5067313;23;20232;-71
2022/10/10 03:31:28;;;;;;;5.13;3.57;;;10.70;99.90;;;;;;5066764;23;20197;-70
2022/10/10 03:33:29;;;;;;;5.37;3.93;;;10.60;99.90;;;;;;5067460;23;20173;-70
2022/10/10 03:35:30;;;;;;;3.67;3.10;;;10.60;99.90;;;;;;5067738;23;20209;-70
2022/10/10 03:37:31;;;;;;;5.30;3.47;;;10.60;99.90;;;;;;5041742;23;20658;-69
2022/10/10 03:39:31;;;;;;;6.73;3.60;;;10.70;99.90;;;;;;5067433;23;20608;-69
2022/10/10 03:41:32;;;;;;;5.60;3.40;;;10.80;99.90;;;;;;5066601;23;20864;-69
2022/10/10 03:43:32;;;;;;;8.20;4.03;;;10.90;99.90;;;;;;5067367;23;20581;-68
2022/10/10 03:45:33;;;;;;;5.70;3.27;;;10.80;99.90;;;;;;5067592;23;20199;-68
2022/10/10 03:47:34;;;;;;;5.97;3.20;;;10.80;99.90;;;;;;5067538;23;20169;-69
2022/10/10 03:49:34;;;;;;;5.17;3.80;;;10.90;99.90;;;;;;5067524;23;20534;-69
2022/10/10 03:51:35;;;;;;;6.50;3.37;;;11.00;99.90;;;;;;5040795;23;20539;-69
2022/10/10 03:53:36;;;;;;;6.07;3.20;;;10.90;99.90;;;;;;5067106;23;20614;-69
2022/10/10 03:55:39;;;;;;;5.40;3.13;;;10.70;99.90;;;;;;5067414;23;20177;-69
2022/10/10 03:57:39;;;;;;;2.87;2.63;;;10.70;99.90;;;;;;5067451;23;20498;-69
2022/10/10 03:59:40;;;;;;;5.47;3.07;;;10.70;99.90;;;;;;5067127;23;20241;-69
2022/10/10 04:01:41;;;;;;;5.67;3.40;;;10.80;99.90;;;;;;5066142;23;20162;-69
2022/10/10 04:03:41;;;;;;;5.30;3.33;;;10.80;99.90;;;;;;5067297;23;20181;-69
2022/10/10 04:05:42;;;;;;;5.27;2.83;;;10.80;99.90;;;;;;5067032;23;20707;-69
2022/10/10 04:07:42;;;;;;;4.93;3.10;;;10.80;99.90;;;;;;5067116;23;20627;-69
2022/10/10 04:09:43;;;;;;;4.87;3.13;;;10.90;99.90;;;;;;5067068;23;20165;-69
2022/10/10 04:11:43;;;;;;;5.40;2.63;;;11.00;99.90;;;;;;5066309;23;20652;-69
2022/10/10 04:13:44;;;;;;;5.17;3.00;;;10.90;99.90;;;;;;5067288;23;20197;-69
2022/10/10 04:15:45;;;;;;;4.10;3.37;;;10.90;99.90;;;;;;5067416;23;20178;-69
2022/10/10 04:17:45;;;;;;;3.33;3.03;;;10.90;99.90;;;;;;5067290;23;20676;-69
2022/10/10 04:19:46;;;;;;;3.97;3.23;;;10.90;99.90;;;;;;5067093;23;20163;-70
2022/10/10 04:21:46;;;;;;;5.23;4.10;;;10.90;99.90;;;;;;5066073;23;20170;-70
2022/10/10 04:23:47;;;;;;;9.40;4.33;;;10.90;99.90;;;;;;5066193;23;20235;-70
2022/10/10 04:25:50;;;;;;;6.57;4.03;;;10.90;99.90;;;;;;5067478;23;20635;-70
2022/10/10 04:27:51;;;;;;;6.70;3.70;;;10.90;99.90;;;;;;5067035;23;20166;-69
2022/10/10 04:29:52;;;;;;;3.40;2.80;;;10.90;99.90;;;;;;5067141;23;20166;-70
2022/10/10 04:31:52;;;;;;;6.30;3.10;;;11.00;99.90;;;;;;5066393;23;20655;-70
2022/10/10 04:33:53;;;;;;;4.33;3.03;;;11.00;99.90;;;;;;5066814;23;20174;-70
2022/10/10 04:35:53;;;;;;;6.23;3.40;;;11.10;99.90;;;;;;5067140;23;20202;-70
2022/10/10 04:37:54;;;;;;;4.00;3.40;;;11.00;99.90;;;;;;5067019;23;20162;-70
2022/10/10 04:39:54;;;;;;;4.40;3.73;;;10.90;99.90;;;;;;5066866;23;20541;-70
2022/10/10 04:41:55;;;;;;;5.37;3.67;;;10.90;99.90;;;;;;5066156;23;20659;-70
2022/10/10 04:43:56;;;;;;;4.27;3.40;;;10.90;99.90;;;;;;5040846;23;20167;-70
2022/10/10 04:45:57;;;;;;;4.47;3.70;;;10.90;99.90;;;;;;5040868;23;20175;-70
2022/10/10 04:47:58;;;;;;;4.93;3.70;;;10.90;99.90;;;;;;5040979;23;20218;-70
2022/10/10 04:49:58;;;;;;;5.67;4.00;;;10.90;99.90;;;;;;5066850;23;20245;-69
2022/10/10 04:51:59;;;;;;;5.60;3.50;;;10.90;99.90;;;;;;5066092;23;20195;-70
2022/10/10 04:53:59;;;;;;;5.63;3.43;;;10.90;99.90;;;;;;5066592;23;20217;-69
2022/10/10 04:56:00;;;;;;;4.77;3.97;;;11.00;99.90;;;;;;5066981;23;20155;-69
2022/10/10 04:58:01;;;;;;;7.20;3.90;;;11.00;99.90;;;;;;5066924;23;20162;-69
2022/10/10 05:00:03;;;;;;;5.40;3.00;;;11.00;99.90;;;;;;5040985;23;20167;-69
2022/10/10 05:02:03;;;;;;;5.00;3.10;;;11.00;99.90;;;;;;5066006;23;20194;-69
2022/10/10 05:04:04;;;;;;;6.27;3.03;;;11.10;99.90;;;;;;5066681;23;20166;-69
2022/10/10 05:06:05;;;;;;;4.70;3.00;;;11.00;99.90;;;;;;5066979;23;20178;-69
2022/10/10 05:08:06;;;;;;;5.00;3.30;;;10.90;99.90;;;;;;5066777;23;20163;-69
2022/10/10 05:10:07;;;;;;;5.13;3.10;;;11.00;99.90;;;;;;5067186;23;20158;-70
2022/10/10 05:12:07;;;;;;;5.50;3.73;;;10.90;99.90;;;;;;5040636;23;20733;-69
2022/10/10 05:14:08;;;;;;;5.27;3.70;;;11.00;99.90;;;;;;5066843;23;20175;-70
2022/10/10 05:16:09;;;;;;;6.30;3.77;;;11.00;99.90;;;;;;5066841;23;20162;-70
2022/10/10 05:18:09;;;;;;;5.10;4.40;;;11.00;99.90;;;;;;5067039;23;20217;-70
2022/10/10 05:20:10;;;;;;;5.10;3.73;;;10.90;99.90;;;;;;5066275;23;20163;-69
2022/10/10 05:22:10;;;;;;;6.07;3.80;;;10.90;99.90;;;;;;5066640;23;20166;-72
2022/10/10 05:24:11;;;;;;;3.53;3.10;;;10.90;99.90;;;;;;5066723;23;20174;-70
2022/10/10 05:26:11;;;;;;;6.73;4.23;;;11.00;99.90;;;;;;5067020;23;20162;-70
2022/10/10 05:28:12;;;;;;;4.27;3.23;;;11.00;99.90;;;;;;5066822;23;20169;-70
2022/10/10 05:30:13;;;;;;;5.50;3.70;;;11.00;99.90;;;;;;5066147;23;20184;-70
2022/10/10 05:32:14;;;;;;;5.00;3.90;;;11.00;99.90;;;;;;5066112;23;20190;-70
2022/10/10 05:34:14;;;;;;;9.57;4.67;;;10.90;99.90;;;;;;5066728;23;20682;-70
2022/10/10 05:36:15;;;;;;;7.90;3.30;;;10.80;99.90;;;;;;5066536;23;20162;-70
2022/10/10 05:38:16;;;;;;;6.43;3.93;;;10.90;99.90;;;;;;5066817;23;20159;-70
2022/10/10 05:40:16;;;;;;;3.97;3.30;;;11.00;99.90;;;;;;5066367;23;20162;-69
2022/10/10 05:42:17;;;;;;;7.23;3.47;;;11.00;99.90;;;;;;5041261;23;20170;-71
2022/10/10 05:44:17;;;;;;;6.07;3.80;;;10.90;99.90;;;;;;5066700;23;20273;-71
2022/10/10 05:46:19;;;;;;;10.10;3.50;;;10.90;99.90;;;;;;5067022;23;20162;-70
2022/10/10 05:48:20;;;;;;;5.03;3.27;;;10.90;99.90;;;;;;5066689;23;20158;-70
2022/10/10 05:50:31;;;;;;;5.27;3.53;;;10.90;99.90;;;;;;5039993;23;20170;-70
2022/10/10 05:52:34;;;;;;;8.33;4.07;;;10.90;99.90;;;;;;5066525;23;20249;-70
2022/10/10 05:54:35;;;;;;;6.70;4.53;;;10.90;99.90;;;;;;5067148;23;20174;-71
2022/10/10 05:56:35;;;;;;;8.43;4.60;;;11.00;99.90;;;;;;5066867;23;20604;-70
2022/10/10 05:58:37;;;;;;;10.20;4.43;;;11.00;99.90;;;;;;5066347;23;20170;-70
2022/10/10 06:00:38;;;;;;;7.23;4.87;;;11.00;99.90;;;;;;5065823;23;20773;-70
2022/10/10 06:02:39;;;;;;;6.97;4.40;;;10.90;99.90;;;;;;5066425;23;20241;-70
2022/10/10 06:04:40;;;;;;;7.87;5.07;;;10.90;99.90;;;;;;5066435;23;20510;-70
2022/10/10 06:06:40;;;;;;;8.10;4.83;;;11.00;99.90;;;;;;5066423;23;20619;-70
2022/10/10 06:08:41;;;;;;;5.63;4.50;;;11.00;99.90;;;;;;5066179;23;20169;-70
2022/10/10 06:10:43;;;;;;;7.10;4.43;;;10.90;99.90;;;;;;5065758;23;20212;-71
2022/10/10 06:12:44;;;;;;;7.90;4.73;;;11.10;99.90;;;;;;5066683;23;20158;-70
2022/10/10 06:14:45;;;;;;;8.87;4.33;;;11.10;99.90;;;;;;5066393;23;20166;-70
2022/10/10 06:16:45;;;;;;;20.23;4.63;;;11.10;99.90;;;;;;5066171;23;20169;-70
2022/10/10 06:18:46;;;;;;;6.07;4.73;;;11.10;99.90;;;;;;5066425;23;20190;-69
2022/10/10 06:20:47;;;;;;;6.23;4.70;;;11.20;99.90;;;;;;5040024;23;20253;-70
2022/10/10 06:22:47;;;;;;;7.70;4.23;;;11.10;99.90;;;;;;5066277;23;20241;-72
2022/10/10 06:24:48;;;;;;;5.47;4.10;;;11.10;99.90;;;;;;5040745;23;20227;-70
2022/10/10 06:26:48;;;;;;;5.20;4.23;;;11.10;99.90;;;;;;5066494;23;20162;-70
2022/10/10 06:28:49;;;;;;;5.53;3.80;;;11.20;99.90;;;;;;5066461;23;20162;-70
2022/10/10 06:30:50;;;;;;;6.37;4.23;;;11.20;99.90;;;;;;5039776;23;20246;-70
2022/10/10 06:32:52;;;;;;;5.67;3.87;;;11.40;99.90;;;;;;5065936;23;20582;-70
2022/10/10 06:34:52;;;;;;;4.40;3.83;;;11.40;99.90;;;;;;5066119;23;20632;-70
2022/10/10 06:36:54;;;;;;;6.57;4.00;;;11.50;99.90;;;;;;5066556;23;20229;-70
2022/10/10 06:38:54;;;;;;;9.00;3.97;;;11.60;99.90;;;;;;5066242;23;20158;-70
2022/10/10 06:40:55;;;;;;;6.07;4.00;;;11.50;99.90;;;;;;5065642;23;20173;-69
2022/10/10 06:42:55;;;;;;;5.63;3.80;;;11.60;99.90;;;;;;5066284;23;20189;-70
2022/10/10 06:44:56;;;;;;;5.00;4.17;;;11.50;99.90;;;;;;5067334;23;20200;-70
2022/10/10 06:46:56;;;;;;;7.53;4.27;;;11.50;99.90;;;;;;5067562;23;20954;-70
2022/10/10 06:48:57;;;;;;;5.40;4.17;;;11.60;99.90;;;;;;5067636;23;20189;-70
2022/10/10 06:51:07;;;;;;;5.97;4.13;;;11.60;99.90;;;;;;5067070;23;20190;-70
2022/10/10 06:53:07;;;;;;;5.97;4.67;;;11.90;99.90;;;;;;5068094;23;20158;-70
2022/10/10 06:55:08;;;;;;;6.87;4.50;;;11.80;99.90;;;;;;5067940;23;20186;-70
2022/10/10 06:57:09;;;;;;;8.73;4.17;;;12.00;99.90;;;;;;5042083;23;20214;-70
2022/10/10 06:59:09;;;;;;;6.83;4.67;;;11.90;99.90;;;;;;5067710;23;20165;-70
2022/10/10 07:01:10;;;;;;;6.33;4.33;;;12.10;99.90;;;;;;5066797;23;20193;-70
2022/10/10 07:03:11;;;;;;;8.67;5.00;;;12.20;99.90;;;;;;5067533;23;20249;-70
2022/10/10 07:05:15;;;;;;;7.07;4.57;;;12.00;99.90;;;;;;5068044;23;20261;-70
2022/10/10 07:07:15;;;;;;;11.23;8.60;;;11.90;99.90;;;;;;5068036;23;20155;-70
2022/10/10 07:09:17;;;;;;;13.83;6.17;;;12.20;99.90;;;;;;5068052;23;20621;-70
2022/10/10 07:11:18;;;;;;;9.20;5.90;;;12.40;99.90;;;;;;5067102;23;20925;-70
2022/10/10 07:13:19;;;;;;;7.87;5.43;;;12.30;99.90;;;;;;5067950;23;20190;-70
2022/10/10 07:15:19;;;;;;;11.10;4.93;;;12.40;99.90;;;;;;5067897;23;20174;-70
2022/10/10 07:17:20;;;;;;;7.37;4.30;;;12.50;99.90;;;;;;5067861;23;20155;-70
2022/10/10 07:19:23;;;;;;;5.87;4.00;;;12.70;99.90;;;;;;5042185;23;20167;-70
2022/10/10 07:21:24;;;;;;;8.03;4.67;;;12.70;99.90;;;;;;5067142;23;20683;-69
2022/10/10 07:23:25;;;;;;;6.80;4.90;;;12.80;99.90;;;;;;5067760;23;20163;-70
2022/10/10 07:25:25;;;;;;;8.37;4.33;;;12.80;99.90;;;;;;5067826;23;20186;-70
2022/10/10 07:27:26;;;;;;;6.27;4.50;;;12.90;99.90;;;;;;5067448;23;20229;-70
2022/10/10 07:29:29;;;;;;;3.87;3.47;;;13.20;99.90;;;;;;5066847;23;20159;-71
2022/10/10 07:31:29;;;;;;;6.17;4.07;;;13.10;99.90;;;;;;5065865;23;20190;-74
2022/10/10 07:33:38;;;;;;;6.03;3.60;;;13.10;99.90;;;;;;5067745;23;20170;-71
2022/10/10 07:35:39;;;;;;;10.63;4.20;;;13.20;99.90;;;;;;5067562;23;20740;-71
2022/10/10 07:37:40;;;;;;;5.37;4.00;;;13.30;99.90;;;;;;5067715;23;20186;-71
2022/10/10 07:39:41;;;;;;;3.93;3.50;;;13.50;99.90;;;;;;5067657;23;20166;-69
2022/10/10 07:41:41;;;;;;;5.20;3.33;;;13.60;99.90;;;;;;5066996;23;20158;-70
2022/10/10 07:43:42;;;;;;;5.60;3.43;;;13.70;99.90;;;;;;5067580;23;20170;-70
2022/10/10 07:45:42;;;;;;;6.03;3.67;;;13.90;99.90;;;;;;5041689;23;20274;-71
2022/10/10 07:47:43;;;;;;;6.80;4.23;;;14.50;98.20;;;;;;5067315;23;20169;-71
2022/10/10 07:49:44;;;;;;;11.13;3.87;;;14.50;98.00;;;;;;5041612;23;20845;-70
2022/10/10 07:51:44;;;;;;;5.43;3.40;;;14.70;98.30;;;;;;5066416;23;20190;-70
2022/10/10 07:53:45;;;;;;;6.47;3.43;;;14.70;97.60;;;;;;5066843;23;20486;-70
2022/10/10 07:55:46;;;;;;;7.40;4.20;;;14.90;98.00;;;;;;5066763;23;20201;-70
2022/10/10 07:57:47;;;;;;;4.40;3.60;;;15.00;96.50;;;;;;5067368;23;20186;-70
2022/10/10 07:59:48;;;;;;;5.07;3.17;;;14.90;97.80;;;;;;5067314;23;20221;-72
2022/10/10 08:01:50;;;;;;;5.93;3.63;;;15.20;96.40;;;;;;5066385;23;20159;-70
2022/10/10 08:03:50;;;;;;;5.77;3.33;;;14.80;97.70;;;;;;5017622;23;20230;-70
2022/10/10 08:05:51;;;;;;;4.40;3.17;;;14.70;98.80;;;;;;5067371;23;20620;-70
2022/10/10 08:07:52;;;;;;;5.23;3.23;;;14.90;99.20;;;;;;5067241;23;20170;-70
2022/10/10 08:09:53;;;;;;;5.80;3.40;;;15.30;97.80;;;;;;5067289;23;20162;-71
2022/10/10 08:11:53;;;;;;;5.70;3.23;;;15.40;97.10;;;;;;5066681;23;20194;-70
2022/10/10 08:13:54;;;;;;;3.57;2.53;;;15.50;97.00;;;;;;5041601;23;20217;-71
2022/10/10 08:15:54;;;;;;;5.83;2.53;;;15.70;97.60;;;;;;5041928;23;20155;-71
2022/10/10 08:17:55;;;;;;;4.47;2.70;;;15.80;97.60;;;;;;5067139;23;20186;-70
2022/10/10 08:19:56;;;;;;;5.30;3.83;;;15.90;97.10;;;;;;5067356;23;20162;-70
2022/10/10 08:21:56;;;;;;;5.77;4.50;;;15.70;96.80;;;;;;5040684;23;20640;-70
2022/10/10 08:23:57;;;;;;;7.83;3.50;;;15.50;96.50;;;;;;5041074;23;20163;-70
2022/10/10 08:26:00;;;;;;;6.07;3.23;;;15.70;96.50;;;;;;5067128;23;20162;-71
2022/10/10 08:28:01;;;;;;;6.50;4.20;;;15.90;95.50;;;;;;5066950;23;20162;-71
2022/10/10 08:30:02;;;;;;;7.27;3.40;;;15.90;95.70;;;;;;5066732;23;20173;-70
2022/10/10 08:32:03;;;;;;;4.60;2.80;;;15.90;95.90;;;;;;5016224;23;20191;-70
2022/10/10 08:34:04;;;;;;;2.90;2.37;;;15.90;94.30;;;;;;5040842;23;20171;-70
2022/10/10 08:36:12;;;;;;;4.73;2.00;;;15.90;94.80;;;;;;5065579;23;20154;-71
2022/10/10 08:38:13;;;;;;;2.80;2.10;;;16.20;93.50;;;;;;5042546;23;20608;-70
2022/10/10 08:40:19;;;;;;;3.70;1.77;;;16.40;93.00;;;;;;5041725;23;20155;-70
2022/10/10 08:42:35;;;;;;;4.87;2.30;;;16.40;93.20;;;;;;5042556;23;20191;-71
2022/10/10 08:44:42;;;;;;;3.73;2.00;;;16.70;92.70;;;;;;5040758;23;20182;-71
2022/10/10 08:46:53;;;;;;;3.57;2.17;;;16.90;91.80;;;;;;5041038;23;20159;-71
2022/10/10 08:48:56;;;;;;;5.30;1.93;;;17.20;91.20;;;;;;5040840;23;20242;-70
2022/10/10 08:51:05;;;;;;;5.20;2.40;;;17.40;90.40;;;;;;5016246;23;20195;-70
2022/10/10 08:53:19;;;;;;;4.40;2.13;;;17.70;88.20;;;;;;5042532;23;20205;-70
2022/10/10 08:55:33;;;;;;;4.00;2.20;;;17.30;88.30;;;;;;5040898;23;20179;-70
2022/10/10 08:57:51;;;;;;;6.70;2.10;;;17.00;89.20;;;;;;5040932;23;20177;-70
2022/10/10 08:59:58;;;;;;;2.80;2.53;;;17.30;88.60;;;;;;5040742;23;20167;-70
2022/10/10 09:02:27;;;;;;;6.87;2.17;;;17.40;86.20;;;;;;5040083;23;20170;-70
2022/10/10 09:04:31;;;;;;;5.60;2.13;;;17.00;85.70;;;;;;5041023;23;20628;-71
2022/10/10 09:06:57;;;;;;;4.00;2.10;;;17.30;85.50;;;;;;5040817;23;20182;-71
2022/10/10 09:09:20;;;;;;;6.03;2.27;;;17.60;84.30;;;;;;5040558;23;20788;-70
2022/10/10 09:12:04;;;;;;;6.73;2.93;;;17.80;81.50;;;;;;5039905;23;20191;-70
2022/10/10 09:14:25;;;;;;;6.20;2.87;;;17.60;82.70;;;;;;5042373;23;20684;-70
2022/10/10 09:17:19;;;;;;;10.47;4.23;;;17.60;83.40;;;;;;5040631;23;20167;-70
2022/10/10 09:19:41;;;;;;;6.93;2.37;;;17.70;80.80;;;;;;5042329;23;20155;-70
2022/10/10 09:21:43;;;;;;;8.87;2.40;;;17.80;77.70;;;;;;5041341;23;20163;-70
2022/10/10 09:23:53;;;;;;;6.77;1.93;;;17.90;77.80;;;;;;5040577;23;20686;-70
2022/10/10 09:26:05;;;;;;;5.40;1.70;;;18.10;75.60;;;;;;5042479;23;20162;-70
2022/10/10 09:28:16;;;;;;;5.20;1.80;;;17.90;76.20;;;;;;5040754;23;20158;-70
2022/10/10 09:30:19;;;;;;;4.40;1.70;;;18.20;76.30;;;;;;5016318;23;20287;-70
2022/10/10 09:32:48;;;;;;;5.60;2.53;;;18.60;73.70;;;;;;5043626;23;20257;-70
2022/10/10 09:35:05;;;;;;;6.93;1.80;;;18.80;73.30;;;;;;5040757;23;20735;-70
2022/10/10 09:37:15;;;;;;;6.63;2.30;;;18.60;71.30;;;;;;5066463;23;20769;-70
2022/10/10 09:39:43;;;;;;;6.97;1.70;;;18.30;71.40;;;;;;5040793;23;20155;-70
2022/10/10 09:41:53;;;;;;;7.30;2.27;;;18.20;72.00;;;;;;5065802;23;20208;-70
2022/10/10 09:43:57;;;;;;;4.07;2.00;;;17.70;72.50;;;;;;5040562;23;20173;-70
2022/10/10 09:45:59;;;;;;;3.70;1.80;;;17.60;73.00;;;;;;5040476;23;20601;-70
2022/10/10 09:47:59;;;;;;;4.00;1.83;;;17.40;74.80;;;;;;5066212;23;20189;-70
2022/10/10 09:50:00;;;;;;;7.13;1.77;;;17.40;75.10;;;;;;5040553;23;20523;-70
2022/10/10 09:52:23;;;;;;;6.90;2.13;;;17.70;73.30;;;;;;5039837;23;20231;-70
2022/10/10 09:54:24;;;;;;;6.33;1.73;;;18.40;70.60;;;;;;5040509;23;20206;-70
2022/10/10 09:56:31;;;;;;;5.53;1.93;;;19.50;65.40;;;;;;5040557;23;20159;-70
2022/10/10 09:58:42;;;;;;;5.63;2.20;;;19.70;62.40;;;;;;5040356;23;20209;-70
2022/10/10 10:00:43;;;;;;;5.40;1.67;;;20.30;58.20;;;;;;5065460;23;20158;-69
2022/10/10 10:02:49;;;;;;;12.27;2.60;;;20.40;58.50;;;;;;5066096;23;20189;-70
2022/10/10 10:04:51;;;;;;;10.97;2.33;;;20.40;56.90;;;;;;5066372;23;20182;-70
2022/10/10 10:07:03;;;;;;;5.80;2.10;;;20.60;55.50;;;;;;5040435;23;20155;-69
2022/10/10 10:09:05;;;;;;;10.67;3.77;;;19.90;56.50;;;;;;5040481;23;20163;-69
2022/10/10 10:11:34;;;;;;;7.23;2.50;;;19.60;57.30;;;;;;5065116;23;20186;-69
2022/10/10 10:13:36;;;;;;;8.83;2.40;;;19.10;57.30;;;;;;5040400;23;20163;-69
2022/10/10 10:15:37;;;;;;;5.90;1.97;;;18.70;59.90;;;;;;5040254;23;20171;-69
2022/10/10 10:17:37;;;;;;;7.43;2.47;;;18.40;62.00;;;;;;5065914;23;20576;-69
2022/10/10 10:19:42;;;;;;;13.27;2.70;;;18.60;64.30;;;;;;5066961;23;20225;-69
2022/10/10 10:21:51;;;;;;;9.80;3.17;;;19.20;61.60;;;;;;5041400;23;20171;-70
2022/10/10 10:24:01;;;;;;;11.00;2.60;;;20.20;59.30;;;;;;5065886;23;20158;-70
2022/10/10 10:26:15;;;;;;;7.20;1.97;;;21.00;53.20;;;;;;5042024;23;20162;-69
2022/10/10 10:28:20;;;;;;;7.93;2.37;;;21.40;50.00;;;;;;5067904;23;20162;-69
2022/10/10 10:30:25;;;;;;;8.07;1.90;;;22.00;49.30;;;;;;5067202;23;20789;-69
2022/10/10 10:32:48;;;;;;;9.73;2.47;;;22.20;46.50;;;;;;5067681;23;20620;-69
2022/10/10 10:35:09;;;;;;;15.47;2.33;;;22.10;47.90;;;;;;5042475;23;20178;-70
2022/10/10 10:38:00;;;;;;;8.67;2.27;;;20.90;49.20;;;;;;5068222;23;20205;-69
2022/10/10 10:40:18;;;;;;;10.87;3.20;;;21.50;49.10;;;;;;5062494;23;20173;-69
2022/10/10 10:42:44;;;;;;;11.63;2.70;;;21.70;48.60;;;;;;5042482;23;20190;-69
2022/10/10 10:45:08;;;;;;;9.57;2.70;;;22.10;46.50;;;;;;5042679;23;20589;-69
2022/10/10 10:47:32;;;;;;;7.77;2.30;;;22.40;45.00;;;;;;5068225;23;20154;-69
2022/10/10 10:49:44;;;;;;;10.13;2.93;;;22.90;43.80;;;;;;5042525;23;20163;-69